tititudorancea.com
Station Historical Data
Daily Summary for December 8, 2018 Units:  English    Metric   Both
« Previous Day
Next Day »
Daily Weekly Monthly Yearly Custom
  High: Low: Average:
Temperature: TemperatureF °F 57 °F 72.5 °F
Dew Point: DewpointF °F 51.3 °F 56.2 °F
Humidity: Humidity % 34 % 59 %
Wind Speed: WindSpeedMPH mph 0 mph 8.4 mph
Wind Gust: WindSpeedGustMPH mph - -
Wind:- - South
Pressure: PressureIn in 29.80 in -
Precipitation: 0 in    
Historical Graphs
 
 
Ararat weather Find more about Weather in Ararat, AU


 



 


Tabular Data for December 8, 2018
Time Temperature Dew Point Pressure Wind Wind Speed Wind Gust Humidity Rainfall Rate (Hourly)
TemperatureF °F DewpointF °F PressureIn in Calm     Humidity % HourlyPrecipIn in
00:04 73 °F 53.3 °F 29.85 in Calm     50 % 0 in
00:09 72.9 °F 53.2 °F 29.85 in SSW 3.5 mph 1.7 mph 50 % 0 in
00:14 72.9 °F 53.2 °F 29.85 in SSW 1.2 mph 0.3 mph 50 % 0 in
00:19 72.8 °F 53.6 °F 29.84 in SSW 2.3 mph 2.1 mph 51 % 0 in
00:24 72.8 °F 53.1 °F 29.84 in SSW 3.5 mph 1.5 mph 50 % 0 in
00:29 73 °F 53.8 °F 29.83 in SSW 2.3 mph 0.7 mph 51 % 0 in
00:34 73 °F 53.3 °F 29.83 in Calm     50 % 0 in
00:39 72.9 °F 53.7 °F 29.83 in Calm     51 % 0 in
00:44 72.7 °F 53.5 °F 29.84 in Calm     51 % 0 in
00:49 72.6 °F 54 °F 29.84 in SSW 3.5 mph 1 mph 52 % 0 in
00:54 72.4 °F 53.8 °F 29.83 in Calm     52 % 0 in
00:59 72.2 °F 54.1 °F 29.84 in SSW 3.5 mph 1.3 mph 53 % 0 in
01:04 72.1 °F 53.5 °F 29.83 in SSW 3.5 mph 2.5 mph 52 % 0 in
01:09 72.3 °F 54.2 °F 29.82 in SSW 1.2 mph 0.5 mph 53 % 0 in
01:14 72.4 °F 53.8 °F 29.82 in Calm     52 % 0 in
01:19 72.3 °F 54.2 °F 29.82 in SSW 1 mph 0.1 mph 53 % 0 in
01:24 72.3 °F 53.7 °F 29.82 in SSW 3.5 mph 1.6 mph 52 % 0 in
01:29 72.7 °F 53.5 °F 29.83 in SSW 5.8 mph 5.3 mph 51 % 0 in
01:34 73.4 °F 53.1 °F 29.84 in SSW 6 mph 5.8 mph 49 % 0 in
01:39 74 °F 51.9 °F 29.83 in SSW 6 mph 3.8 mph 46 % 0 in
01:44 74.8 °F 51.4 °F 29.82 in South 3.5 mph 1.4 mph 44 % 0 in
01:49 75.4 °F 52 °F 29.81 in South 2.3 mph 1.6 mph 44 % 0 in
01:54 75.7 °F 52.2 °F 29.81 in South 4 mph 2.8 mph 44 % 0 in
01:59 75.6 °F 52.8 °F 29.81 in Calm     45 % 0 in
02:04 75.4 °F 52.6 °F 29.81 in Calm     45 % 0 in
02:09 75.1 °F 52.9 °F 29.81 in Calm     46 % 0 in
02:14 75 °F 52.8 °F 29.81 in South 2.3 mph 2 mph 46 % 0 in
02:19 74.9 °F 52.7 °F 29.81 in South 1.2 mph   46 % 0 in
02:24 74.8 °F 52.6 °F 29.80 in Calm     46 % 0 in
02:29 74.6 °F 53 °F 29.81 in Calm     47 % 0 in
02:34 74.3 °F 52.8 °F 29.81 in South 1.2 mph 0.2 mph 47 % 0 in
02:39 74.2 °F 53.2 °F 29.81 in South 2.3 mph 2.2 mph 48 % 0 in
02:44 74.3 °F 52.8 °F 29.81 in South 4.6 mph 2.3 mph 47 % 0 in
02:49 74.5 °F 52.9 °F 29.81 in South 3.5 mph 0.1 mph 47 % 0 in
02:54 74.3 °F 53.3 °F 29.80 in Calm     48 % 0 in
02:59 73.9 °F 54.1 °F 29.80 in South 4.6 mph 2 mph 50 % 0 in
03:04 73.6 °F 53.8 °F 29.80 in South 2.3 mph 0.7 mph 50 % 0 in
03:09 73.6 °F 53.8 °F 29.82 in South 2.3 mph 1.1 mph 50 % 0 in
03:14 73.4 °F 54.7 °F 29.82 in South 2.3 mph 1.7 mph 52 % 0 in
03:19 73.4 °F 53.1 °F 29.81 in South 8.1 mph 6.6 mph 49 % 0 in
03:24 74.9 °F 52.1 °F 29.82 in South 6.9 mph 2.9 mph 45 % 0 in
03:29 75.9 °F 52.4 °F 29.82 in South 6.9 mph 5.5 mph 44 % 0 in
03:34 76.7 °F 51.9 °F 29.82 in South 8.1 mph 6.7 mph 42 % 0 in
03:39 77.4 °F 51.9 °F 29.83 in South 3.5 mph 2.3 mph 41 % 0 in
03:44 77.5 °F 51.9 °F 29.84 in South 3.5 mph 1.5 mph 41 % 0 in
03:49 77.4 °F 52.5 °F 29.86 in SW 12 mph 8.4 mph 42 % 0 in
03:54 77.9 °F 51.6 °F 29.86 in West 11 mph 9.1 mph 40 % 0 in
03:59 78.3 °F 51.3 °F 29.86 in West 20.7 mph 14 mph 39 % 0 in
04:04 77.8 °F 51.5 °F 29.86 in WSW 18.4 mph 10.2 mph 40 % 0 in
04:09 77.1 °F 52.2 °F 29.86 in SW 15 mph 3.9 mph 42 % 0 in
04:14 76.6 °F 52.4 °F 29.86 in SW 9.2 mph 4.3 mph 43 % 0 in
04:19 76.3 °F 52.8 °F 29.86 in SW 9 mph 5 mph 44 % 0 in
04:24 75.9 °F 54.2 °F 29.87 in SW 11.5 mph 5.8 mph 47 % 0 in
04:29 75.5 °F 55 °F 29.88 in SW 12.7 mph 7.2 mph 49 % 0 in
04:34 75.3 °F 55.4 °F 29.88 in SW 11.5 mph 6.5 mph 50 % 0 in
04:39 75 °F 55.1 °F 29.88 in SW 6.9 mph 4.6 mph 50 % 0 in
04:44 74.8 °F 54.9 °F 29.88 in SW 6.9 mph 4.8 mph 50 % 0 in
04:49 74.9 °F 54.4 °F 29.88 in WSW 8.1 mph 3.9 mph 49 % 0 in
04:54 75.1 °F 54.6 °F 29.88 in SW 6.9 mph 5.1 mph 49 % 0 in
04:59 75.2 °F 54.7 °F 29.88 in SW 3.5 mph 3.4 mph 49 % 0 in
05:04 75.1 °F 55.2 °F 29.87 in SW 4.6 mph 1.2 mph 50 % 0 in
05:09 74.8 °F 55.5 °F 29.86 in SSW 4.6 mph 2.4 mph 51 % 0 in
05:14 74.2 °F 56.5 °F 29.86 in SSW 3.5 mph 2 mph 54 % 0 in
05:19 73.3 °F 55.6 °F 29.87 in South 6.9 mph 4.4 mph 54 % 0 in
05:24 72.6 °F 55 °F 29.87 in SE 6 mph 5.6 mph 54 % 0 in
05:29 72 °F 54.9 °F 29.88 in ESE 5.8 mph 4.9 mph 55 % 0 in
05:34 71.6 °F 54.6 °F 29.88 in ESE 5.8 mph 3.7 mph 55 % 0 in
05:39 71.4 °F 54.4 °F 29.87 in ESE 4.6 mph 1.4 mph 55 % 0 in
05:44 71.2 °F 54.7 °F 29.87 in ESE 4.6 mph 1.5 mph 56 % 0 in
05:49 71 °F 54.5 °F 29.88 in Calm     56 % 0 in
05:54 70.9 °F 54.9 °F 29.89 in ESE 2 mph 0.8 mph 57 % 0 in
05:59 70.6 °F 55.1 °F 29.89 in ESE 3.5 mph 2.5 mph 58 % 0 in
06:04 70.4 °F 55.4 °F 29.89 in ESE 2.3 mph 0.7 mph 59 % 0 in
06:09 70.2 °F 56.6 °F 29.88 in ESE 2.3 mph 1.6 mph 62 % 0 in
06:14 69.8 °F 57.1 °F 29.88 in Calm     64 % 0 in
06:19 69.1 °F 57.7 °F 29.89 in ESE 4 mph 3.2 mph 67 % 0 in
06:24 68.2 °F 58 °F 29.89 in ESE 4 mph 2.9 mph 70 % 0 in
06:29 68 °F 58.2 °F 29.89 in ESE 3.5 mph 0.5 mph 71 % 0 in
06:34 67.9 °F 58.5 °F 29.88 in Calm     72 % 0 in
06:39 67.9 °F 58.9 °F 29.88 in Calm     73 % 0 in
06:44 67.8 °F 58.8 °F 29.89 in ESE 2 mph 0.6 mph 73 % 0 in
06:49 67.6 °F 59.8 °F 29.89 in ESE 4 mph 2.9 mph 76 % 0 in
06:54 67.6 °F 60.1 °F 29.89 in ESE 1.2 mph   77 % 0 in
06:59 67.9 °F 61.1 °F 29.88 in Calm     79 % 0 in
07:04 68.1 °F 61.3 °F 29.88 in Calm     79 % 0 in
07:09 68.6 °F 61.8 °F 29.89 in Calm     79 % 0 in
07:14 69 °F 61.5 °F 29.89 in ESE 3.5 mph 1.5 mph 77 % 0 in
07:19 69.6 °F 61.3 °F 29.88 in Calm     75 % 0 in
07:24 70.3 °F 61.2 °F 29.88 in Calm     73 % 0 in
07:29 70.9 °F 60.6 °F 29.88 in ESE 4 mph 3.4 mph 70 % 0 in
07:34 71.2 °F 59.7 °F 29.88 in ESE 2.3 mph 1.6 mph 67 % 0 in
07:39 71.7 °F 59.7 °F 29.88 in ESE 3.5 mph 2.3 mph 66 % 0 in
07:44 72.5 °F 59.6 °F 29.89 in ESE 4.6 mph 4.5 mph 64 % 0 in
07:49 73.2 °F 59.4 °F 29.89 in ESE 3.5 mph 4.1 mph 62 % 0 in
07:54 74.1 °F 58.9 °F 29.89 in ESE 3.5 mph 1.3 mph 59 % 0 in
07:59 74.7 °F 59.4 °F 29.89 in East 3 mph 0.9 mph 59 % 0 in
08:04 75.3 °F 58.5 °F 29.90 in Calm     56 % 0 in
08:09 75.6 °F 57.8 °F 29.90 in Calm     54 % 0 in
08:14 75.7 °F 58.4 °F 29.90 in East 1.2 mph 0.1 mph 55 % 0 in
08:19 75.7 °F 57.9 °F 29.91 in East 3.5 mph 2.1 mph 54 % 0 in
08:23 75.7 °F 57.9 °F 29.91 in East 3.5 mph 2.4 mph 54 % 0 in
08:33 75.6 °F 57.3 °F 29.91 in East 3.5 mph 1.9 mph 53 % 0 in
08:49 75.9 °F 57 °F 29.91 in East 4 mph 3.5 mph 52 % 0 in
08:50 75.9 °F 57 °F 29.91 in East 3.5 mph 3.2 mph 52 % 0 in
08:59 76.3 °F 57.4 °F 29.92 in East 4 mph 2.9 mph 52 % 0 in
09:04 76.6 °F 57.1 °F 29.92 in East 3.5 mph 1.2 mph 51 % 0 in
09:09 77.1 °F 57 °F 29.92 in East 3.5 mph 1.6 mph 50 % 0 in
09:14 77.5 °F 57.9 °F 29.92 in East 1.2 mph 0.4 mph 51 % 0 in
09:19 77.7 °F 57.6 °F 29.92 in East 3.5 mph 2.9 mph 50 % 0 in
09:24 77.8 °F 58.2 °F 29.93 in Calm     51 % 0 in
09:29 77.9 °F 56.6 °F 29.93 in East 3.5 mph 2.8 mph 48 % 0 in
09:34 78 °F 56.1 °F 29.91 in East 5.8 mph 3.1 mph 47 % 0 in
09:39 78.1 °F 57.4 °F 29.91 in East 3.5 mph 0.4 mph 49 % 0 in
09:44 78.4 °F 56.5 °F 29.92 in East 3.5 mph 1.8 mph 47 % 0 in
09:49 79 °F 55.8 °F 29.92 in East 1.2 mph 0.3 mph 45 % 0 in
09:54 79.6 °F 55.8 °F 29.92 in East 3.5 mph 2.7 mph 44 % 0 in
09:59 79.6 °F 56.4 °F 29.91 in East 5 mph 2.2 mph 45 % 0 in
10:04 79.6 °F 55.8 °F 29.91 in East 3.5 mph 0.6 mph 44 % 0 in
10:09 79.7 °F 55.9 °F 29.91 in East 5.8 mph 3.5 mph 44 % 0 in
10:14 79.5 °F 55 °F 29.91 in East 4 mph 3.3 mph 43 % 0 in
10:19 79.4 °F 55.6 °F 29.91 in East 3.5 mph 0.6 mph 44 % 0 in
10:24 79.6 °F 55.1 °F 29.91 in East 3.5 mph 2.1 mph 43 % 0 in
10:29 79.9 °F 55.4 °F 29.91 in East 3.5 mph 1.8 mph 43 % 0 in
10:34 80 °F 54.8 °F 29.91 in East 5.8 mph 2.9 mph 42 % 0 in
10:39 79.8 °F 54 °F 29.91 in East 5.8 mph 3.1 mph 41 % 0 in
10:44 79.7 °F 54.6 °F 29.91 in East 3.5 mph 3.5 mph 42 % 0 in
10:49 79.6 °F 54.5 °F 29.90 in East 4.6 mph 1.3 mph 42 % 0 in
10:54 79.5 °F 55.7 °F 29.91 in East 3.5 mph 0.8 mph 44 % 0 in
10:59 79.2 °F 55.4 °F 29.91 in East 3.5 mph 2 mph 44 % 0 in
11:04 79.2 °F 56 °F 29.90 in East 2.3 mph 0.8 mph 45 % 0 in
11:09 79.4 °F 56.2 °F 29.90 in East 1.2 mph 0.2 mph 45 % 0 in
11:14 80.4 °F 55.9 °F 29.90 in East 3.5 mph 3.5 mph 43 % 0 in
11:19 80.4 °F 55.9 °F 29.90 in East 2.3 mph 1.5 mph 43 % 0 in
11:24 80.7 °F 55.5 °F 29.90 in East 1.2 mph 0.4 mph 42 % 0 in
11:29 81.5 °F 54.8 °F 29.90 in East 3.5 mph 2.8 mph 40 % 0 in
11:34 82.1 °F 55.4 °F 29.90 in East 2.3 mph 1.2 mph 40 % 0 in
11:39 82.5 °F 55 °F 29.90 in East 2.3 mph 1.3 mph 39 % 0 in
11:40 82.6 °F 55.1 °F 29.90 in East 3 mph 1.9 mph 39 % 0 in
12:39 86.2 °F 55.3 °F 29.90 in NNW 4.6 mph 4.3 mph 35 % 0 in
12:44 86.5 °F 54.8 °F 29.90 in NNW 6.9 mph 6.1 mph 34 % 0 in
12:49 86.1 °F 54.5 °F 29.90 in NW 9.2 mph 8 mph 34 % 0 in
12:54 85.6 °F 54 °F 29.90 in NW 11.5 mph 9.8 mph 34 % 0 in
12:59 85.8 °F 55 °F 29.90 in West 10 mph 7.5 mph 35 % 0 in
13:04 85.8 °F 54.2 °F 29.90 in West 10 mph 5.8 mph 34 % 0 in
13:09 85.4 °F 54.6 °F 29.90 in West 5.8 mph 2.2 mph 35 % 0 in
13:14 85.5 °F 54.7 °F 29.90 in West 6.9 mph 5.5 mph 35 % 0 in
13:19 85.7 °F 54.1 °F 29.90 in NW 11.5 mph 9.4 mph 34 % 0 in
13:24 85.2 °F 54.5 °F 29.90 in NW 8.1 mph 5.4 mph 35 % 0 in
13:29 85.1 °F 55.1 °F 29.90 in North 8.1 mph 5.7 mph 36 % 0 in
13:34 85.6 °F 54.8 °F 29.90 in North 6.9 mph 5.3 mph 35 % 0 in
13:39 85.5 °F 55.5 °F 29.90 in NNW 8 mph 4.9 mph 36 % 0 in
13:44 85.2 °F 55.2 °F 29.90 in NW 11.5 mph 5.1 mph 36 % 0 in
13:49 85.4 °F 56.2 °F 29.90 in NW 6.9 mph 5 mph 37 % 0 in
13:54 85.6 °F 55.6 °F 29.90 in WNW 10 mph 7.9 mph 36 % 0 in
13:59 85.7 °F 55.7 °F 29.91 in WNW 8.1 mph 5.1 mph 36 % 0 in
14:04 85.8 °F 56.5 °F 29.90 in NW 11.5 mph 9.5 mph 37 % 0 in
14:09 85.8 °F 57.3 °F 29.90 in WNW 15 mph 9.2 mph 38 % 0 in
14:14 85.5 °F 57 °F 29.90 in West 10.4 mph 7.5 mph 38 % 0 in
14:19 85.9 °F 57.3 °F 29.90 in West 9.2 mph 6.4 mph 38 % 0 in
14:24 86.2 °F 57.6 °F 29.90 in WNW 10.4 mph 5.6 mph 38 % 0 in
14:29 86.1 °F 56.8 °F 29.90 in WNW 5 mph 4.8 mph 37 % 0 in
14:34 85.8 °F 56.5 °F 29.90 in WNW 12.7 mph 7.9 mph 37 % 0 in
14:39 85.8 °F 57.3 °F 29.90 in WNW 9.2 mph 5.4 mph 38 % 0 in
14:44 86.1 °F 57.5 °F 29.90 in West 10.4 mph 10.6 mph 38 % 0 in
14:49 85.9 °F 56.6 °F 29.89 in WNW 11.5 mph 6.4 mph 37 % 0 in
14:54 85.9 °F 56.6 °F 29.90 in North 6.9 mph 4.9 mph 37 % 0 in
14:59 85.9 °F 56.6 °F 29.90 in WNW 12 mph 10.1 mph 37 % 0 in
15:04 85.6 °F 56.3 °F 29.90 in WNW 8 mph 6.8 mph 37 % 0 in
15:09 85.4 °F 55.4 °F 29.90 in WNW 9.2 mph 5 mph 36 % 0 in
15:14 85.7 °F 55.7 °F 29.90 in WNW 15 mph 7.7 mph 36 % 0 in
15:19 85.6 °F 56.3 °F 29.90 in North 10.4 mph 4.9 mph 37 % 0 in
15:24 85.7 °F 56.4 °F 29.90 in NW 12.7 mph 7.4 mph 37 % 0 in
15:29 86 °F 56.7 °F 29.90 in West 10.4 mph 5.8 mph 37 % 0 in
15:34 86 °F 55.9 °F 29.90 in WSW 12.7 mph 4.8 mph 36 % 0 in
15:39 85 °F 60.6 °F 29.91 in SSW 12.7 mph 9.9 mph 44 % 0 in
15:44 81.8 °F 61.3 °F 29.91 in SSW 16.1 mph 9.8 mph 50 % 0 in
15:49 80.7 °F 62 °F 29.91 in SSW 8.1 mph 7.3 mph 53 % 0 in
15:54 80.1 °F 61.4 °F 29.91 in SW 17.3 mph 13.7 mph 53 % 0 in
15:59 79.2 °F 61.6 °F 29.91 in SSW 12.7 mph 7.5 mph 55 % 0 in
16:04 78.7 °F 61.7 °F 29.91 in SSW 18.4 mph 12.7 mph 56 % 0 in
16:09 77.7 °F 61.7 °F 29.92 in SSE 13 mph 9.8 mph 58 % 0 in
16:14 77.4 °F 61.5 °F 29.92 in South 13.8 mph 8 mph 58 % 0 in
16:19 77.2 °F 61.8 °F 29.92 in SSW 17.3 mph 9.7 mph 59 % 0 in
16:24 77.3 °F 61.9 °F 29.92 in SW 11.5 mph 7.3 mph 59 % 0 in
16:29 76.9 °F 62 °F 29.92 in SSW 18.4 mph 11.3 mph 60 % 0 in
16:34 76.7 °F 61.8 °F 29.93 in SW 11.5 mph 8.1 mph 60 % 0 in
16:39 76.5 °F 61.6 °F 29.92 in SSW 13.8 mph 9.7 mph 60 % 0 in
16:44 76 °F 61.6 °F 29.93 in SSW 16.1 mph 6.5 mph 61 % 0 in
16:49 75.6 °F 61.2 °F 29.93 in South 13 mph 8.8 mph 61 % 0 in
16:54 75.1 °F 61.2 °F 29.93 in SSW 11.5 mph 6.2 mph 62 % 0 in
16:59 75.1 °F 61.2 °F 29.93 in SSW 15 mph 11.5 mph 62 % 0 in
17:04 74.3 °F 60.9 °F 29.93 in SW 11.5 mph 11.9 mph 63 % 0 in
17:09 73.3 °F 60.8 °F 29.93 in SSW 16.1 mph 11.5 mph 65 % 0 in
17:14 72.9 °F 60.9 °F 29.93 in South 11.5 mph 6.4 mph 66 % 0 in
17:19 72.6 °F 61 °F 29.94 in South 11.5 mph 7.2 mph 67 % 0 in
17:24 72.5 °F 60.5 °F 29.94 in SW 13.8 mph 12 mph 66 % 0 in
17:29 72.4 °F 60.8 °F 29.94 in South 16.1 mph 11.4 mph 67 % 0 in
17:34 72.3 °F 60.7 °F 29.94 in South 12.7 mph 12 mph 67 % 0 in
17:39 71.5 °F 60 °F 29.94 in North 18.4 mph 11.1 mph 67 % 0 in
17:44 70.9 °F 60.2 °F 29.95 in South 17.3 mph 11.4 mph 69 % 0 in
17:49 70.2 °F 60 °F 29.95 in SSW 19.6 mph 12.5 mph 70 % 0 in
17:54 69.8 °F 60 °F 29.96 in SSW 15 mph 10.5 mph 71 % 0 in
17:59 69.4 °F 60 °F 29.95 in SSW 17.3 mph 13.7 mph 72 % 0 in
18:04 69.3 °F 59.9 °F 29.96 in South 15 mph 8.8 mph 72 % 0 in
18:09 69 °F 59.6 °F 29.96 in South 15 mph 11.1 mph 72 % 0 in
18:14 68.6 °F 59.6 °F 29.96 in South 13.8 mph 8.3 mph 73 % 0 in
18:19 68.5 °F 59.5 °F 29.97 in SSW 11.5 mph 9.1 mph 73 % 0 in
18:24 68.1 °F 59.5 °F 29.97 in SSW 18.4 mph 13.5 mph 74 % 0 in
18:29 67.9 °F 59.7 °F 29.97 in SSW 13.8 mph 7.2 mph 75 % 0 in
18:34 67.5 °F 58.9 °F 29.98 in South 17.3 mph 11.5 mph 74 % 0 in
18:39 67.1 °F 58.9 °F 29.98 in South 15 mph 7.2 mph 75 % 0 in
18:44 67 °F 58.8 °F 29.98 in SSW 14 mph 9 mph 75 % 0 in
18:49 66.7 °F 58.9 °F 29.98 in SSW 11.5 mph 12.3 mph 76 % 0 in
18:54 66.4 °F 58.6 °F 29.98 in South 19.6 mph 11.4 mph 76 % 0 in
18:59 66.2 °F 58.8 °F 29.98 in South 11.5 mph 5.4 mph 77 % 0 in
19:04 65.8 °F 58.4 °F 29.98 in South 15 mph 10.9 mph 77 % 0 in
19:09 65.6 °F 58.6 °F 29.98 in South 16.1 mph 8.2 mph 78 % 0 in
19:14 65.5 °F 58.5 °F 29.98 in South 9.2 mph 8.6 mph 78 % 0 in
19:19 65.5 °F 58.5 °F 29.99 in South 14 mph 8.5 mph 78 % 0 in
19:24 65.4 °F 58.4 °F 29.99 in South 16.1 mph 9.9 mph 78 % 0 in
19:29 65.3 °F 58.6 °F 29.99 in SSE 16.1 mph 6.8 mph 79 % 0 in
19:34 65.2 °F 58.5 °F 29.99 in South 17.3 mph 6.9 mph 79 % 0 in
19:39 65.1 °F 58.8 °F 30.00 in South 11.5 mph 8.5 mph 80 % 0 in
19:44 64.9 °F 58.6 °F 30.00 in South 9.2 mph 5.7 mph 80 % 0 in
19:49 64.7 °F 58.4 °F 30.00 in South 12.7 mph 8.6 mph 80 % 0 in
19:54 64.3 °F 58 °F 30.00 in South 18.4 mph 6.6 mph 80 % 0 in
19:59 64.2 °F 58.2 °F 30.00 in SSW 11.5 mph 6.6 mph 81 % 0 in
20:04 63.9 °F 58 °F 30.00 in SSW 18.4 mph 4.3 mph 81 % 0 in
20:09 63.7 °F 58.1 °F 30.01 in South 14 mph 7.5 mph 82 % 0 in
20:14 63.4 °F 57.8 °F 30.01 in South 11.5 mph 9.1 mph 82 % 0 in
20:19 63 °F 57.8 °F 30.01 in South 9.2 mph 6.1 mph 83 % 0 in
20:24 62.5 °F 57.3 °F 30.01 in North 16.1 mph 12.1 mph 83 % 0 in
20:29 61.9 °F 57 °F 30.02 in SSW 17.3 mph 10.7 mph 84 % 0 in
20:34 61.4 °F 56.8 °F 30.02 in South 17.3 mph 11.8 mph 85 % 0 in
20:39 61 °F 56.8 °F 30.02 in South 10.4 mph 6.3 mph 86 % 0 in
20:44 60.7 °F 56.8 °F 30.02 in South 19.6 mph 10.7 mph 87 % 0 in
20:49 60.5 °F 56.6 °F 30.02 in SSW 12 mph 9.1 mph 87 % 0 in
20:54 60.3 °F 56.4 °F 30.02 in South 18.4 mph 10.5 mph 87 % 0 in
20:59 60.2 °F 56.6 °F 30.02 in South 19 mph 10.3 mph 88 % 0 in
21:04 60.1 °F 56.5 °F 30.02 in South 16.1 mph 10.7 mph 88 % 0 in
21:09 60 °F 56.4 °F 30.02 in SSE 11.5 mph 3 mph 88 % 0 in
21:14 60 °F 56.4 °F 30.02 in SSE 11.5 mph 10.4 mph 88 % 0 in
21:19 59.8 °F 56.2 °F 30.02 in SSW 12.7 mph 8.7 mph 88 % 0 in
21:24 59.5 °F 56.3 °F 30.03 in North 15 mph 9.2 mph 89 % 0 in
21:29 59.3 °F 56.1 °F 30.03 in South 10 mph 8.5 mph 89 % 0 in
21:34 59.2 °F 56 °F 30.03 in South 11.5 mph 8.8 mph 89 % 0 in
21:39 59 °F 56.1 °F 30.03 in South 19.6 mph 12 mph 90 % 0 in
21:44 58.8 °F 55.9 °F 30.04 in SSE 17.3 mph 7.9 mph 90 % 0 in
21:49 58.7 °F 55.8 °F 30.03 in South 13.8 mph 7.1 mph 90 % 0 in
21:54 58.6 °F 56 °F 30.04 in South 16.1 mph 9.5 mph 91 % 0 in
21:59 58.4 °F 55.8 °F 30.04 in South 15 mph 10.3 mph 91 % 0 in
22:04 58.3 °F 55.7 °F 30.04 in South 18.4 mph 12.5 mph 91 % 0 in
22:09 58.1 °F 55.2 °F 30.04 in South 12.7 mph 5.6 mph 90 % 0 in
22:14 58 °F 55.4 °F 30.04 in South 15 mph 10.7 mph 91 % 0 in
22:19 57.9 °F 55.3 °F 30.04 in South 13.8 mph 9.2 mph 91 % 0 in
22:24 57.8 °F 55.2 °F 30.05 in South 13 mph 7.6 mph 91 % 0 in
22:29 57.8 °F 55.2 °F 30.05 in SSE 8.1 mph 6.1 mph 91 % 0 in
22:34 57.8 °F 55.2 °F 30.05 in South 17 mph 8.5 mph 91 % 0 in
22:39 57.7 °F 55.1 °F 30.05 in South 12.7 mph 8.1 mph 91 % 0 in
22:44 57.6 °F 55 °F 30.05 in SSE 17.3 mph 7.8 mph 91 % 0 in
22:49 57.5 °F 54.9 °F 30.05 in SSE 16.1 mph 8.3 mph 91 % 0 in
22:54 57.4 °F 54.8 °F 30.05 in South 12.7 mph 10 mph 91 % 0 in
22:59 57.3 °F 54.7 °F 30.06 in South 12.7 mph 4.3 mph 91 % 0 in
23:04 57.2 °F 54.6 °F 30.05 in SSE 17.3 mph 10.4 mph 91 % 0 in
23:09 57.1 °F 54.5 °F 30.05 in South 15 mph 7.2 mph 91 % 0 in
23:14 57 °F 54.4 °F 30.05 in SSW 11.5 mph 8.5 mph 91 % 0 in
23:19 57 °F 54.4 °F 30.05 in South 12.7 mph 7.8 mph 91 % 0 in
23:24 57 °F 54.4 °F 30.05 in South 16.1 mph 9.3 mph 91 % 0 in
23:29 57 °F 54.4 °F 30.05 in South 11.5 mph 8.3 mph 91 % 0 in
23:34 57 °F 54.4 °F 30.05 in North 16 mph 10.5 mph 91 % 0 in
23:39 57 °F 54.4 °F 30.04 in South 13.8 mph 9.4 mph 91 % 0 in
23:44 57 °F 54.7 °F 30.04 in South 12.7 mph 10.6 mph 92 % 0 in
23:49 57.1 °F 54.8 °F 30.04 in North 11.5 mph 9.7 mph 92 % 0 in
23:54 57.1 °F 54.8 °F 30.04 in SSE 12.7 mph 8.4 mph 92 % 0 in
23:59 57.1 °F 54.8 °F 30.04 in South 15 mph 7.8 mph 92 % 0 in
Ararat Weather
Compliments of Weather Underground - 2.25 mb
Click here to send mail.


ABOUT

Live weather data from Ararat, Victoria, Australia, 3377
Data uploaded from Cumulus every 5 minutes to Weather Underground.
This site then downloads the raw data for formatting and display.
Metric and imperial data can be displayed. Graphs and historical data available.
Includes Sun and Moon times and rain image live from BOM.

Check out Ararat Weather on Facebook, Twitter and Google +

Help support ongoing costs by checking out the ads





Follow @AraratWeather